KADW/ADW METAR and TAF weather

Enter ICAO airport designator
Station Type Date Time Source
KADW METAR 2020/01/23 08:56 UTC NOAA

KADW 230856Z AUTO 00000KT 10SM CLR M06/M07 A3039 RMK AO2 SLP301 T10581073 58008 $


Station Type Date Time Source
KADW Decoded METAR 2020/01/23 08:56 UTC NOAA

Camp Springs / Andrews Air Force Base, MD, United States (KADW) 38-49N 076-51W 88M
Jan 23, 2020 - 03:56 AM EST / 2020.01.23 0856 UTC
Wind: Calm:0
Visibility: 10 mile(s):0
Sky conditions: clear
Temperature: 21.6 F (-5.8 C)
Dew Point: 18.9 F (-7.3 C)
Relative Humidity: 89%
Pressure (altimeter): 30.39 in. Hg (1029 hPa)
Pressure tendency: 0.02 inches (0.8 hPa) lower than three hours ago
ob: KADW 230856Z AUTO 00000KT 10SM CLR M06/M07 A3039 RMK AO2 SLP301 T10581073 58008
cycle: 9

Station Type Date Time Source
KADW TAF 2020/01/23 09:24 UTC NOAA

TAF KADW 230900Z 2309/2415 VRB06KT 9999 SCT200 QNH3031INS
BECMG 2400/2401 10006KT 9999 SCT006 BKN020 QNH3034INS
BECMG 2405/2406 04006KT 9999 BKN010 BKN020 QNH3037INS
BECMG 2408/2409 04006KT 6000 BR BKN005 BKN020 QNH3037INS
BECMG 2411/2412 04006KT 0800 FG OVC001 QNH3037INS TX02/2319Z TNM06/2313Z

Example: see airport list